Main page
METAR-TAF:

METAR-TAF

Airports :

Niamey, Niger

Diori Hamani International Airport

latitude: 13-29N, longitude: 002-10E, elevation: 223 m

Current weather observation

The report was made 30 minutes ago, at 07:00 UTC
Wind 11 kt from the South/Southwest
Temperature 28°C
Humidity 58%
Pressure 1013 hPa
Visibility 10 km or more
no clouds below 1500 m and no cumulonimbus

METAR: DRRN 260700Z 20011KT CAVOK 28/19 Q1013 NOSIG

Time: 08:30 (07:30 UTC)

Forecast

The report was made 2 hours and 30 minutes ago, at 05:00 UTC
Forecast valid from 26 at 06 UTC to 27 at 12 UTC
Wind 10 kt from the South
Visibility: 4000 m
widespread dust
Probability 30% :
Temporary
from 26 at 09 UTC to 26 at 14 UTC
Few clouds at a height of 4000 ft, Cumulonimbus.
Becoming
from 26 at 14 UTC to 26 at 16 UTC
Visibility: 6000 m

TAF: DRRN 260500Z 2606/2712 18010KT 4000 DU NSC PROB30 TEMPO 2609/2614 TSSHRA FEW040CB BECMG 2614/2616 6000 NSW

Weather observations and forecasts of more than 4000 airports (METAR and TAF reports).

The available stations are represented by yellow and red dots on the map.

Hover mouse over dot to see the name of the station.

Then click to see weather observations and forecasts.

To change the map : click on the green buttons with a black cross to zoom in, on the green button with a dash to zoom out, or on the green arrows for adjacent maps.


METAR-TAF: